sensor_id;sensor_type;location;lat;lon;timestamp;pressure;altitude;pressure_sealevel;temperature;humidity
43663;BME280;74813;56.104;40.358;2024-01-10T00:00:23;98898.13;;;-10.11;76.77
43663;BME280;74813;56.104;40.358;2024-01-10T00:02:56;98904.50;;;-10.21;77.02
43663;BME280;74813;56.104;40.358;2024-01-10T00:05:28;98916.03;;;-10.28;76.49
43663;BME280;74813;56.104;40.358;2024-01-10T00:08:01;98907.47;;;-10.15;76.28
43663;BME280;74813;56.104;40.358;2024-01-10T00:10:33;98908.78;;;-10.43;76.48
43663;BME280;74813;56.104;40.358;2024-01-10T00:13:05;98909.69;;;-10.27;77.18
43663;BME280;74813;56.104;40.358;2024-01-10T00:15:38;98922.81;;;-10.26;76.83
43663;BME280;74813;56.104;40.358;2024-01-10T00:18:11;98913.00;;;-10.25;76.63
43663;BME280;74813;56.104;40.358;2024-01-10T00:20:43;98916.97;;;-10.21;76.44
43663;BME280;74813;56.104;40.358;2024-01-10T00:23:15;98910.97;;;-10.15;75.81
43663;BME280;74813;56.104;40.358;2024-01-10T00:25:48;98907.22;;;-10.29;75.92
43663;BME280;74813;56.104;40.358;2024-01-10T00:28:20;98909.25;;;-10.31;76.71
43663;BME280;74813;56.104;40.358;2024-01-10T00:30:53;98898.53;;;-10.23;76.62
43663;BME280;74813;56.104;40.358;2024-01-10T00:33:25;98903.34;;;-10.26;77.09
43663;BME280;74813;56.104;40.358;2024-01-10T00:35:57;98906.16;;;-10.20;76.16
43663;BME280;74813;56.104;40.358;2024-01-10T00:38:30;98898.44;;;-10.37;76.70
43663;BME280;74813;56.104;40.358;2024-01-10T00:41:02;98914.50;;;-10.23;76.37
43663;BME280;74813;56.104;40.358;2024-01-10T00:43:35;98902.13;;;-10.47;76.68
43663;BME280;74813;56.104;40.358;2024-01-10T00:46:07;98905.59;;;-10.38;77.08
43663;BME280;74813;56.104;40.358;2024-01-10T00:48:39;98911.41;;;-10.34;76.83
43663;BME280;74813;56.104;40.358;2024-01-10T00:51:12;98915.66;;;-10.25;76.71
43663;BME280;74813;56.104;40.358;2024-01-10T00:53:44;98921.25;;;-10.51;76.77
43663;BME280;74813;56.104;40.358;2024-01-10T00:56:16;98917.22;;;-10.39;76.84
43663;BME280;74813;56.104;40.358;2024-01-10T00:58:49;98929.03;;;-10.42;76.45
43663;BME280;74813;56.104;40.358;2024-01-10T01:01:21;98930.63;;;-10.24;76.55
43663;BME280;74813;56.104;40.358;2024-01-10T01:03:53;98935.25;;;-10.57;76.45
43663;BME280;74813;56.104;40.358;2024-01-10T01:06:26;98942.00;;;-10.30;76.81
43663;BME280;74813;56.104;40.358;2024-01-10T01:08:58;98944.09;;;-10.26;76.28
43663;BME280;74813;56.104;40.358;2024-01-10T01:11:30;98943.00;;;-10.40;76.72
43663;BME280;74813;56.104;40.358;2024-01-10T01:14:03;98949.53;;;-10.50;76.77
43663;BME280;74813;56.104;40.358;2024-01-10T01:16:35;98948.97;;;-10.29;76.40
43663;BME280;74813;56.104;40.358;2024-01-10T01:19:08;98953.59;;;-10.23;75.51
43663;BME280;74813;56.104;40.358;2024-01-10T01:21:40;98950.38;;;-10.58;76.57
43663;BME280;74813;56.104;40.358;2024-01-10T01:24:12;98953.47;;;-10.30;76.25
43663;BME280;74813;56.104;40.358;2024-01-10T01:26:45;98952.50;;;-10.53;76.32
43663;BME280;74813;56.104;40.358;2024-01-10T01:29:17;98947.53;;;-10.48;76.87
43663;BME280;74813;56.104;40.358;2024-01-10T01:31:50;98948.00;;;-10.45;76.76
43663;BME280;74813;56.104;40.358;2024-01-10T01:34:22;98942.03;;;-10.47;76.37
43663;BME280;74813;56.104;40.358;2024-01-10T01:36:55;98949.34;;;-10.49;76.07
43663;BME280;74813;56.104;40.358;2024-01-10T01:39:27;98949.00;;;-10.54;76.75
43663;BME280;74813;56.104;40.358;2024-01-10T01:41:59;98946.88;;;-10.50;76.63
43663;BME280;74813;56.104;40.358;2024-01-10T01:44:32;98958.31;;;-10.50;76.73
43663;BME280;74813;56.104;40.358;2024-01-10T01:47:04;98964.81;;;-10.52;76.17
43663;BME280;74813;56.104;40.358;2024-01-10T01:49:37;98967.66;;;-10.62;76.78
43663;BME280;74813;56.104;40.358;2024-01-10T01:52:10;98971.31;;;-10.55;76.28
43663;BME280;74813;56.104;40.358;2024-01-10T01:54:42;98975.81;;;-10.72;75.97
43663;BME280;74813;56.104;40.358;2024-01-10T01:57:15;98986.63;;;-10.65;76.11
43663;BME280;74813;56.104;40.358;2024-01-10T01:59:47;98993.56;;;-10.56;76.45
43663;BME280;74813;56.104;40.358;2024-01-10T02:02:21;99003.38;;;-10.56;75.94
43663;BME280;74813;56.104;40.358;2024-01-10T02:04:54;98998.91;;;-10.64;75.64
43663;BME280;74813;56.104;40.358;2024-01-10T02:07:27;99013.53;;;-10.76;75.82
43663;BME280;74813;56.104;40.358;2024-01-10T02:09:59;99019.34;;;-10.81;75.79
43663;BME280;74813;56.104;40.358;2024-01-10T02:12:31;99022.19;;;-10.83;76.30
43663;BME280;74813;56.104;40.358;2024-01-10T02:15:04;99032.47;;;-10.79;76.51
43663;BME280;74813;56.104;40.358;2024-01-10T02:17:38;99033.63;;;-10.98;76.22
43663;BME280;74813;56.104;40.358;2024-01-10T02:20:11;99031.78;;;-10.73;75.64
43663;BME280;74813;56.104;40.358;2024-01-10T02:22:44;99031.78;;;-10.73;75.13
43663;BME280;74813;56.104;40.358;2024-01-10T02:25:16;99048.09;;;-10.76;75.16
43663;BME280;74813;56.104;40.358;2024-01-10T02:27:50;99070.69;;;-10.89;75.14
43663;BME280;74813;56.104;40.358;2024-01-10T02:30:22;99065.50;;;-10.98;75.42
43663;BME280;74813;56.104;40.358;2024-01-10T02:32:55;99072.66;;;-11.07;75.65
43663;BME280;74813;56.104;40.358;2024-01-10T02:35:27;99083.75;;;-11.12;75.60
43663;BME280;74813;56.104;40.358;2024-01-10T02:38:01;99094.53;;;-11.13;75.37
43663;BME280;74813;56.104;40.358;2024-01-10T02:40:33;99095.22;;;-11.03;74.77
43663;BME280;74813;56.104;40.358;2024-01-10T02:43:06;99104.59;;;-11.33;75.62
43663;BME280;74813;56.104;40.358;2024-01-10T02:45:38;99121.94;;;-11.13;75.55
43663;BME280;74813;56.104;40.358;2024-01-10T02:48:10;99121.00;;;-11.46;76.00
43663;BME280;74813;56.104;40.358;2024-01-10T02:50:43;99129.44;;;-11.51;76.51
43663;BME280;74813;56.104;40.358;2024-01-10T02:53:15;99143.09;;;-11.72;76.75
43663;BME280;74813;56.104;40.358;2024-01-10T02:55:48;99152.13;;;-11.64;76.83
43663;BME280;74813;56.104;40.358;2024-01-10T02:58:20;99172.34;;;-11.63;77.41
43663;BME280;74813;56.104;40.358;2024-01-10T03:00:53;99149.81;;;-11.59;76.62
43663;BME280;74813;56.104;40.358;2024-01-10T03:03:25;99175.25;;;-11.75;77.00
43663;BME280;74813;56.104;40.358;2024-01-10T03:05:57;99179.38;;;-11.80;77.19
43663;BME280;74813;56.104;40.358;2024-01-10T03:08:30;99183.19;;;-11.57;76.36
43663;BME280;74813;56.104;40.358;2024-01-10T03:11:02;99192.44;;;-11.61;76.37
43663;BME280;74813;56.104;40.358;2024-01-10T03:13:35;99190.53;;;-11.77;75.60
43663;BME280;74813;56.104;40.358;2024-01-10T03:16:07;99201.19;;;-11.69;76.26
43663;BME280;74813;56.104;40.358;2024-01-10T03:18:39;99194.47;;;-11.89;77.02
43663;BME280;74813;56.104;40.358;2024-01-10T03:21:12;99199.41;;;-11.86;76.61
43663;BME280;74813;56.104;40.358;2024-01-10T03:23:44;99188.97;;;-11.61;76.85
43663;BME280;74813;56.104;40.358;2024-01-10T03:26:17;99197.34;;;-11.74;76.57
43663;BME280;74813;56.104;40.358;2024-01-10T03:28:49;99199.63;;;-11.79;76.18
43663;BME280;74813;56.104;40.358;2024-01-10T03:31:22;99194.94;;;-11.85;76.44
43663;BME280;74813;56.104;40.358;2024-01-10T03:33:54;99207.03;;;-11.91;76.28
43663;BME280;74813;56.104;40.358;2024-01-10T03:36:26;99204.09;;;-11.80;75.77
43663;BME280;74813;56.104;40.358;2024-01-10T03:38:59;99205.56;;;-11.59;75.09
43663;BME280;74813;56.104;40.358;2024-01-10T03:41:31;99215.47;;;-11.96;75.16
43663;BME280;74813;56.104;40.358;2024-01-10T03:44:04;99218.78;;;-12.12;75.61
43663;BME280;74813;56.104;40.358;2024-01-10T03:46:36;99232.81;;;-12.19;76.19
43663;BME280;74813;56.104;40.358;2024-01-10T03:49:08;99236.03;;;-12.16;76.30
43663;BME280;74813;56.104;40.358;2024-01-10T03:51:41;99239.63;;;-12.17;76.36
43663;BME280;74813;56.104;40.358;2024-01-10T03:54:13;99248.91;;;-12.21;75.83
43663;BME280;74813;56.104;40.358;2024-01-10T03:56:45;99244.38;;;-12.56;76.27
43663;BME280;74813;56.104;40.358;2024-01-10T03:59:18;99254.66;;;-12.43;76.40
43663;BME280;74813;56.104;40.358;2024-01-10T04:01:50;99267.53;;;-12.48;75.96
43663;BME280;74813;56.104;40.358;2024-01-10T04:04:23;99282.63;;;-12.59;76.33
43663;BME280;74813;56.104;40.358;2024-01-10T04:06:55;99290.97;;;-12.53;76.40
43663;BME280;74813;56.104;40.358;2024-01-10T04:09:27;99307.00;;;-12.45;75.87
43663;BME280;74813;56.104;40.358;2024-01-10T04:12:00;99295.44;;;-12.54;75.28
43663;BME280;74813;56.104;40.358;2024-01-10T04:14:32;99306.78;;;-12.62;75.52
43663;BME280;74813;56.104;40.358;2024-01-10T04:17:04;99317.91;;;-12.48;75.13
43663;BME280;74813;56.104;40.358;2024-01-10T04:19:37;99304.41;;;-12.55;74.88
43663;BME280;74813;56.104;40.358;2024-01-10T04:22:09;99325.84;;;-12.48;74.81
43663;BME280;74813;56.104;40.358;2024-01-10T04:24:41;99330.16;;;-12.47;74.91
43663;BME280;74813;56.104;40.358;2024-01-10T04:27:14;99333.66;;;-12.47;75.10
43663;BME280;74813;56.104;40.358;2024-01-10T04:29:46;99339.38;;;-12.79;75.45
43663;BME280;74813;56.104;40.358;2024-01-10T04:32:19;99361.28;;;-12.77;75.72
43663;BME280;74813;56.104;40.358;2024-01-10T04:34:51;99369.53;;;-12.80;75.95
43663;BME280;74813;56.104;40.358;2024-01-10T04:37:24;99385.16;;;-12.87;75.93
43663;BME280;74813;56.104;40.358;2024-01-10T04:39:56;99395.91;;;-12.98;76.00
43663;BME280;74813;56.104;40.358;2024-01-10T04:42:30;99404.94;;;-12.91;76.37
43663;BME280;74813;56.104;40.358;2024-01-10T04:45:02;99418.47;;;-12.84;76.13
43663;BME280;74813;56.104;40.358;2024-01-10T04:47:38;99415.34;;;-12.60;75.43
43663;BME280;74813;56.104;40.358;2024-01-10T04:50:10;99424.41;;;-12.63;74.89
43663;BME280;74813;56.104;40.358;2024-01-10T04:52:43;99432.56;;;-12.93;75.68
43663;BME280;74813;56.104;40.358;2024-01-10T04:55:15;99440.66;;;-12.85;76.33
43663;BME280;74813;56.104;40.358;2024-01-10T04:57:47;99447.59;;;-12.65;75.12
43663;BME280;74813;56.104;40.358;2024-01-10T05:00:20;99454.59;;;-12.83;75.50
43663;BME280;74813;56.104;40.358;2024-01-10T05:02:52;99462.81;;;-12.86;75.51
43663;BME280;74813;56.104;40.358;2024-01-10T05:05:24;99465.75;;;-12.89;75.67
43663;BME280;74813;56.104;40.358;2024-01-10T05:07:57;99481.13;;;-12.93;75.39
43663;BME280;74813;56.104;40.358;2024-01-10T05:10:29;99474.69;;;-12.90;75.14
43663;BME280;74813;56.104;40.358;2024-01-10T05:13:02;99478.09;;;-13.27;75.46
43663;BME280;74813;56.104;40.358;2024-01-10T05:15:34;99490.44;;;-12.99;75.65
43663;BME280;74813;56.104;40.358;2024-01-10T05:18:06;99496.75;;;-13.29;75.91
43663;BME280;74813;56.104;40.358;2024-01-10T05:20:39;99499.97;;;-13.35;76.38
43663;BME280;74813;56.104;40.358;2024-01-10T05:23:11;99511.94;;;-13.40;76.42
43663;BME280;74813;56.104;40.358;2024-01-10T05:25:43;99522.66;;;-13.52;76.78
43663;BME280;74813;56.104;40.358;2024-01-10T05:28:16;99537.03;;;-13.35;76.71
43663;BME280;74813;56.104;40.358;2024-01-10T05:30:48;99550.53;;;-13.38;76.02
43663;BME280;74813;56.104;40.358;2024-01-10T05:33:21;99542.41;;;-13.56;76.22
43663;BME280;74813;56.104;40.358;2024-01-10T05:35:53;99561.94;;;-13.57;76.69
43663;BME280;74813;56.104;40.358;2024-01-10T05:38:25;99555.22;;;-13.61;76.71
43663;BME280;74813;56.104;40.358;2024-01-10T05:40:58;99567.75;;;-13.63;76.99
43663;BME280;74813;56.104;40.358;2024-01-10T05:43:30;99576.00;;;-13.56;76.50
43663;BME280;74813;56.104;40.358;2024-01-10T05:46:03;99579.75;;;-13.59;76.28
43663;BME280;74813;56.104;40.358;2024-01-10T05:48:35;99574.22;;;-13.46;75.45
43663;BME280;74813;56.104;40.358;2024-01-10T05:51:07;99585.06;;;-13.49;75.29
43663;BME280;74813;56.104;40.358;2024-01-10T05:53:40;99593.41;;;-13.54;75.30
43663;BME280;74813;56.104;40.358;2024-01-10T05:56:12;99603.75;;;-13.41;75.26
43663;BME280;74813;56.104;40.358;2024-01-10T05:58:45;99607.28;;;-13.31;75.08
43663;BME280;74813;56.104;40.358;2024-01-10T06:01:17;99618.88;;;-12.83;74.07
43663;BME280;74813;56.104;40.358;2024-01-10T06:03:50;99625.38;;;-13.26;74.20
43663;BME280;74813;56.104;40.358;2024-01-10T06:06:22;99629.72;;;-13.15;74.42
43663;BME280;74813;56.104;40.358;2024-01-10T06:08:54;99638.94;;;-13.10;73.95
43663;BME280;74813;56.104;40.358;2024-01-10T06:11:27;99633.00;;;-12.73;73.37
43663;BME280;74813;56.104;40.358;2024-01-10T06:13:59;99632.63;;;-13.28;73.72
43663;BME280;74813;56.104;40.358;2024-01-10T06:16:32;99639.38;;;-13.05;74.47
43663;BME280;74813;56.104;40.358;2024-01-10T06:19:04;99641.69;;;-13.21;73.95
43663;BME280;74813;56.104;40.358;2024-01-10T06:21:37;99643.41;;;-13.01;73.47
43663;BME280;74813;56.104;40.358;2024-01-10T06:24:09;99653.06;;;-12.22;72.37
43663;BME280;74813;56.104;40.358;2024-01-10T06:26:42;99656.75;;;-11.76;70.56
43663;BME280;74813;56.104;40.358;2024-01-10T06:29:14;99653.25;;;-11.66;69.58
43663;BME280;74813;56.104;40.358;2024-01-10T06:31:47;99666.72;;;-11.87;69.64
43663;BME280;74813;56.104;40.358;2024-01-10T06:34:19;99662.00;;;-11.56;69.41
43663;BME280;74813;56.104;40.358;2024-01-10T06:36:52;99663.19;;;-11.41;68.13
43663;BME280;74813;56.104;40.358;2024-01-10T06:39:24;99663.78;;;-10.64;66.91
43663;BME280;74813;56.104;40.358;2024-01-10T06:41:56;99656.47;;;-11.08;65.99
43663;BME280;74813;56.104;40.358;2024-01-10T06:44:30;99663.06;;;-10.84;67.82
43663;BME280;74813;56.104;40.358;2024-01-10T06:47:02;99665.53;;;-11.28;66.60
43663;BME280;74813;56.104;40.358;2024-01-10T06:49:35;99664.06;;;-10.85;66.15
43663;BME280;74813;56.104;40.358;2024-01-10T06:52:07;99667.78;;;-9.80;64.35
43663;BME280;74813;56.104;40.358;2024-01-10T06:54:39;99659.81;;;-9.20;61.94
43663;BME280;74813;56.104;40.358;2024-01-10T06:57:12;99677.09;;;-9.58;60.83
43663;BME280;74813;56.104;40.358;2024-01-10T06:59:44;99675.56;;;-9.87;61.71
43663;BME280;74813;56.104;40.358;2024-01-10T07:02:16;99672.72;;;-9.41;61.17
43663;BME280;74813;56.104;40.358;2024-01-10T07:04:49;99700.13;;;-11.10;63.63
43663;BME280;74813;56.104;40.358;2024-01-10T07:07:21;99690.81;;;-10.15;63.16
43663;BME280;74813;56.104;40.358;2024-01-10T07:09:53;99700.63;;;-10.51;62.79
43663;BME280;74813;56.104;40.358;2024-01-10T07:12:26;99695.22;;;-10.24;62.64
43663;BME280;74813;56.104;40.358;2024-01-10T07:14:58;99693.16;;;-10.12;62.83
43663;BME280;74813;56.104;40.358;2024-01-10T07:17:31;99706.84;;;-10.07;61.55
43663;BME280;74813;56.104;40.358;2024-01-10T07:20:03;99716.13;;;-10.65;63.17
43663;BME280;74813;56.104;40.358;2024-01-10T07:22:36;99726.81;;;-10.29;60.46
43663;BME280;74813;56.104;40.358;2024-01-10T07:25:08;99708.78;;;-9.29;59.65
43663;BME280;74813;56.104;40.358;2024-01-10T07:27:41;99718.06;;;-9.07;59.40
43663;BME280;74813;56.104;40.358;2024-01-10T07:30:13;99726.63;;;-9.47;59.81
43663;BME280;74813;56.104;40.358;2024-01-10T07:32:46;99725.00;;;-9.84;58.64
43663;BME280;74813;56.104;40.358;2024-01-10T07:35:18;99721.81;;;-9.18;57.76
43663;BME280;74813;56.104;40.358;2024-01-10T07:37:51;99734.94;;;-9.50;58.17
43663;BME280;74813;56.104;40.358;2024-01-10T07:40:23;99748.91;;;-9.57;57.76
43663;BME280;74813;56.104;40.358;2024-01-10T07:42:55;99742.19;;;-9.35;57.97
43663;BME280;74813;56.104;40.358;2024-01-10T07:45:28;99758.69;;;-8.79;56.95
43663;BME280;74813;56.104;40.358;2024-01-10T07:48:01;99764.44;;;-9.70;59.79
43663;BME280;74813;56.104;40.358;2024-01-10T07:50:33;99761.03;;;-9.36;58.61
43663;BME280;74813;56.104;40.358;2024-01-10T07:53:05;99771.72;;;-9.72;56.98
43663;BME280;74813;56.104;40.358;2024-01-10T07:55:38;99773.28;;;-8.91;56.44
43663;BME280;74813;56.104;40.358;2024-01-10T07:58:10;99786.56;;;-9.69;58.93
43663;BME280;74813;56.104;40.358;2024-01-10T08:00:42;99792.44;;;-9.66;59.14
43663;BME280;74813;56.104;40.358;2024-01-10T08:03:15;99789.31;;;-7.82;56.91
43663;BME280;74813;56.104;40.358;2024-01-10T08:05:47;99799.75;;;-9.68;57.52
43663;BME280;74813;56.104;40.358;2024-01-10T08:08:20;99813.28;;;-9.43;57.33
43663;BME280;74813;56.104;40.358;2024-01-10T08:10:52;99817.13;;;-8.17;56.17
43663;BME280;74813;56.104;40.358;2024-01-10T08:13:24;99823.78;;;-8.63;54.85
43663;BME280;74813;56.104;40.358;2024-01-10T08:15:57;99811.91;;;-8.27;54.86
43663;BME280;74813;56.104;40.358;2024-01-10T08:18:29;99821.59;;;-9.02;54.92
43663;BME280;74813;56.104;40.358;2024-01-10T08:21:01;99819.34;;;-8.55;54.98
43663;BME280;74813;56.104;40.358;2024-01-10T08:23:34;99816.44;;;-7.19;53.84
43663;BME280;74813;56.104;40.358;2024-01-10T08:26:07;99819.94;;;-6.46;51.49
43663;BME280;74813;56.104;40.358;2024-01-10T08:28:39;99823.97;;;-6.03;49.28
43663;BME280;74813;56.104;40.358;2024-01-10T08:31:12;99826.94;;;-5.98;47.46
43663;BME280;74813;56.104;40.358;2024-01-10T08:33:44;99827.53;;;-6.19;47.25
43663;BME280;74813;56.104;40.358;2024-01-10T08:36:16;99825.13;;;-4.16;48.75
43663;BME280;74813;56.104;40.358;2024-01-10T08:38:49;99827.06;;;-5.22;45.99
43663;BME280;74813;56.104;40.358;2024-01-10T08:41:21;99839.41;;;-5.59;47.05
43663;BME280;74813;56.104;40.358;2024-01-10T08:43:54;99828.75;;;-4.39;44.49
43663;BME280;74813;56.104;40.358;2024-01-10T08:46:26;99842.47;;;-4.19;43.91
43663;BME280;74813;56.104;40.358;2024-01-10T08:48:58;99838.66;;;-5.22;44.07
43663;BME280;74813;56.104;40.358;2024-01-10T08:51:31;99850.09;;;-5.28;46.22
43663;BME280;74813;56.104;40.358;2024-01-10T08:54:03;99838.81;;;-2.04;40.16
43663;BME280;74813;56.104;40.358;2024-01-10T08:56:35;99837.34;;;-3.26;42.38
43663;BME280;74813;56.104;40.358;2024-01-10T08:59:08;99841.81;;;-4.36;42.88
43663;BME280;74813;56.104;40.358;2024-01-10T09:01:40;99840.63;;;-3.67;42.33
43663;BME280;74813;56.104;40.358;2024-01-10T09:04:12;99845.34;;;-3.69;41.74
43663;BME280;74813;56.104;40.358;2024-01-10T09:06:45;99841.47;;;-4.33;42.46
43663;BME280;74813;56.104;40.358;2024-01-10T09:09:17;99842.59;;;-1.92;39.80
43663;BME280;74813;56.104;40.358;2024-01-10T09:11:50;99843.59;;;-2.41;41.33
43663;BME280;74813;56.104;40.358;2024-01-10T09:14:22;99843.00;;;-1.95;38.84
43663;BME280;74813;56.104;40.358;2024-01-10T09:16:55;99844.84;;;-1.47;37.97
43663;BME280;74813;56.104;40.358;2024-01-10T09:19:28;99844.41;;;-0.18;34.76
43663;BME280;74813;56.104;40.358;2024-01-10T09:22:00;99849.47;;;-1.08;34.81
43663;BME280;74813;56.104;40.358;2024-01-10T09:24:33;99861.25;;;-1.97;37.18
43663;BME280;74813;56.104;40.358;2024-01-10T09:27:05;99847.66;;;0.11;35.73
43663;BME280;74813;56.104;40.358;2024-01-10T09:29:37;99853.22;;;1.31;32.33
43663;BME280;74813;56.104;40.358;2024-01-10T09:32:10;99870.41;;;-1.91;35.94
43663;BME280;74813;56.104;40.358;2024-01-10T09:34:42;99863.78;;;-1.14;36.45
43663;BME280;74813;56.104;40.358;2024-01-10T09:37:14;99869.03;;;1.09;33.36
43663;BME280;74813;56.104;40.358;2024-01-10T09:39:47;99859.81;;;0.85;33.07
43663;BME280;74813;56.104;40.358;2024-01-10T09:42:20;99865.06;;;-0.97;33.91
43663;BME280;74813;56.104;40.358;2024-01-10T09:44:52;99841.16;;;3.28;31.32
43663;BME280;74813;56.104;40.358;2024-01-10T09:47:25;99860.50;;;4.78;28.23
43663;BME280;74813;56.104;40.358;2024-01-10T09:49:59;99870.31;;;0.68;31.84
43663;BME280;74813;56.104;40.358;2024-01-10T09:52:39;99877.84;;;1.29;31.51
43663;BME280;74813;56.104;40.358;2024-01-10T09:55:12;99876.38;;;0.12;32.43
43663;BME280;74813;56.104;40.358;2024-01-10T09:57:46;99881.63;;;-2.57;34.30
43663;BME280;74813;56.104;40.358;2024-01-10T10:00:18;99867.94;;;-0.12;33.64
43663;BME280;74813;56.104;40.358;2024-01-10T10:02:51;99869.69;;;4.20;27.53
43663;BME280;74813;56.104;40.358;2024-01-10T10:05:24;99856.84;;;5.18;25.97
43663;BME280;74813;56.104;40.358;2024-01-10T10:07:57;99873.81;;;3.28;29.83
43663;BME280;74813;56.104;40.358;2024-01-10T10:10:29;99870.88;;;4.12;26.76
43663;BME280;74813;56.104;40.358;2024-01-10T10:13:02;99866.88;;;5.12;26.75
43663;BME280;74813;56.104;40.358;2024-01-10T10:15:34;99867.16;;;4.30;27.07
43663;BME280;74813;56.104;40.358;2024-01-10T10:18:13;99864.50;;;3.83;25.15
43663;BME280;74813;56.104;40.358;2024-01-10T10:20:46;99867.81;;;3.85;27.40
43663;BME280;74813;56.104;40.358;2024-01-10T10:23:19;99875.38;;;6.00;25.66
43663;BME280;74813;56.104;40.358;2024-01-10T10:25:51;99861.50;;;6.68;24.12
43663;BME280;74813;56.104;40.358;2024-01-10T10:28:28;99868.91;;;7.54;23.83
43663;BME280;74813;56.104;40.358;2024-01-10T10:31:01;99875.53;;;7.58;22.42
43663;BME280;74813;56.104;40.358;2024-01-10T10:33:34;99871.84;;;7.80;22.50
43663;BME280;74813;56.104;40.358;2024-01-10T10:36:07;99890.28;;;3.45;24.77
43663;BME280;74813;56.104;40.358;2024-01-10T10:38:39;99885.38;;;2.51;26.58
43663;BME280;74813;56.104;40.358;2024-01-10T10:41:12;99893.06;;;3.15;26.28
43663;BME280;74813;56.104;40.358;2024-01-10T10:43:46;99889.25;;;1.63;28.11
43663;BME280;74813;56.104;40.358;2024-01-10T10:46:19;99882.63;;;3.89;26.78
43663;BME280;74813;56.104;40.358;2024-01-10T10:48:53;99888.56;;;4.50;26.66
43663;BME280;74813;56.104;40.358;2024-01-10T10:53:59;99897.19;;;1.08;28.70
43663;BME280;74813;56.104;40.358;2024-01-10T10:56:33;99898.25;;;0.69;27.49
43663;BME280;74813;56.104;40.358;2024-01-10T10:59:07;99880.38;;;3.74;27.37
43663;BME280;74813;56.104;40.358;2024-01-10T11:01:40;99871.06;;;4.74;24.45
43663;BME280;74813;56.104;40.358;2024-01-10T11:04:13;99895.28;;;1.40;28.45
43663;BME280;74813;56.104;40.358;2024-01-10T11:06:45;99889.53;;;2.17;27.83
43663;BME280;74813;56.104;40.358;2024-01-10T11:09:18;99891.13;;;2.06;27.50
43663;BME280;74813;56.104;40.358;2024-01-10T11:26:15;99881.06;;;2.92;27.62
43663;BME280;74813;56.104;40.358;2024-01-10T11:28:47;99882.72;;;2.63;26.50
43663;BME280;74813;56.104;40.358;2024-01-10T11:31:30;99895.38;;;1.77;27.92
43663;BME280;74813;56.104;40.358;2024-01-10T11:34:03;99883.88;;;3.28;25.43
43663;BME280;74813;56.104;40.358;2024-01-10T11:36:35;99875.44;;;4.47;25.13
43663;BME280;74813;56.104;40.358;2024-01-10T11:39:08;99893.47;;;1.59;25.75
43663;BME280;74813;56.104;40.358;2024-01-10T11:41:40;99874.69;;;4.63;24.72
43663;BME280;74813;56.104;40.358;2024-01-10T11:46:47;99875.13;;;1.98;27.27
43663;BME280;74813;56.104;40.358;2024-01-10T11:49:21;99871.34;;;2.96;26.37
43663;BME280;74813;56.104;40.358;2024-01-10T11:51:57;99874.69;;;1.33;27.32
43663;BME280;74813;56.104;40.358;2024-01-10T11:54:44;99866.63;;;4.04;25.20
43663;BME280;74813;56.104;40.358;2024-01-10T11:59:53;99878.00;;;2.40;25.57
43663;BME280;74813;56.104;40.358;2024-01-10T12:02:26;99872.69;;;3.95;25.39
43663;BME280;74813;56.104;40.358;2024-01-10T12:04:58;99867.44;;;4.05;25.01
43663;BME280;74813;56.104;40.358;2024-01-10T12:07:31;99883.84;;;2.00;26.41
43663;BME280;74813;56.104;40.358;2024-01-10T12:10:03;99893.16;;;-0.91;29.69
43663;BME280;74813;56.104;40.358;2024-01-10T12:12:36;99897.22;;;-2.18;33.28
43663;BME280;74813;56.104;40.358;2024-01-10T12:15:09;99895.16;;;-2.79;35.31
43663;BME280;74813;56.104;40.358;2024-01-10T12:17:41;99898.78;;;-4.93;38.43
43663;BME280;74813;56.104;40.358;2024-01-10T12:20:13;99903.03;;;-4.99;40.42
43663;BME280;74813;56.104;40.358;2024-01-10T12:22:47;99908.00;;;-5.65;41.67
43663;BME280;74813;56.104;40.358;2024-01-10T12:25:19;99910.13;;;-6.31;42.81
43663;BME280;74813;56.104;40.358;2024-01-10T12:27:52;99911.88;;;-6.62;43.08
43663;BME280;74813;56.104;40.358;2024-01-10T12:30:25;99897.25;;;-5.65;42.33
43663;BME280;74813;56.104;40.358;2024-01-10T12:33:00;99901.00;;;-7.10;44.18
43663;BME280;74813;56.104;40.358;2024-01-10T12:35:33;99890.97;;;-7.00;45.54
43663;BME280;74813;56.104;40.358;2024-01-10T12:38:05;99899.56;;;-6.24;43.00
43663;BME280;74813;56.104;40.358;2024-01-10T12:40:38;99897.19;;;-5.79;41.67
43663;BME280;74813;56.104;40.358;2024-01-10T12:43:12;99876.53;;;-6.58;44.10
43663;BME280;74813;56.104;40.358;2024-01-10T12:45:44;99890.97;;;-7.16;44.96
43663;BME280;74813;56.104;40.358;2024-01-10T12:48:17;99894.34;;;-7.14;46.18
43663;BME280;74813;56.104;40.358;2024-01-10T12:50:49;99898.25;;;-8.78;48.80
43663;BME280;74813;56.104;40.358;2024-01-10T12:53:21;99887.78;;;-8.03;48.57
43663;BME280;74813;56.104;40.358;2024-01-10T12:55:55;99890.88;;;-8.58;48.12
43663;BME280;74813;56.104;40.358;2024-01-10T12:58:28;99889.19;;;-9.12;51.26
43663;BME280;74813;56.104;40.358;2024-01-10T13:01:00;99880.78;;;-8.99;50.43
43663;BME280;74813;56.104;40.358;2024-01-10T13:03:33;99890.88;;;-9.92;53.01
43663;BME280;74813;56.104;40.358;2024-01-10T13:06:05;99895.03;;;-10.07;53.33
43663;BME280;74813;56.104;40.358;2024-01-10T13:08:38;99893.78;;;-11.35;57.13
43663;BME280;74813;56.104;40.358;2024-01-10T13:11:11;99890.06;;;-12.12;59.83
43663;BME280;74813;56.104;40.358;2024-01-10T13:13:44;99886.47;;;-11.72;60.73
43663;BME280;74813;56.104;40.358;2024-01-10T13:16:16;99890.13;;;-11.34;59.12
43663;BME280;74813;56.104;40.358;2024-01-10T13:18:49;99882.84;;;-11.32;58.91
43663;BME280;74813;56.104;40.358;2024-01-10T13:21:21;99880.28;;;-11.04;58.20
43663;BME280;74813;56.104;40.358;2024-01-10T13:23:53;99882.41;;;-11.95;59.98
43663;BME280;74813;56.104;40.358;2024-01-10T13:26:26;99877.81;;;-11.54;59.93
43663;BME280;74813;56.104;40.358;2024-01-10T13:28:58;99873.63;;;-11.66;59.96
43663;BME280;74813;56.104;40.358;2024-01-10T13:31:31;99881.84;;;-11.60;59.92
43663;BME280;74813;56.104;40.358;2024-01-10T13:34:03;99872.06;;;-11.20;58.60